Point Stuart, Australia
Current Conditions -  °F | °C
As of 5:00 PM on Friday 19 Dec 2014 (Local Time) from YPDN Reporting Station
Broken Clouds Broken Clouds  
Wind Chill: 90°   Ceiling: 28000
Heat Index: 102°   Visibility: 6mi
Dew Point: 77°   Wind: 15mph
Humidity: 66%   Direction: 320°NW
Pressure: 29.71"   Gusts: NA
Location:  12.36°S, 131.81°E
Report Text: YPDN 190800Z 32013KT 9999 FEW033TCU BKN280 32/25 Q1006
Loading
Personal Weather Stations






























Interactive Weather Map New forecast layout! Learn more

10-Day Weather Forecast

Advertisements
Track Severe Weather on mobile